createdAt,value
2017-10-21T00:01:22.297Z,957.41
2017-10-21T00:02:22.305Z,957.46
2017-10-21T00:04:15.721Z,957.46
2017-10-21T00:05:15.705Z,957.49
2017-10-21T00:07:09.093Z,957.46
2017-10-21T00:08:09.099Z,957.49
2017-10-21T00:10:02.516Z,957.46
2017-10-21T00:11:02.502Z,957.47
2017-10-21T00:12:55.888Z,957.45
2017-10-21T00:13:55.901Z,957.47
2017-10-21T00:15:48.810Z,957.48
2017-10-21T00:16:48.799Z,957.47
2017-10-21T00:18:42.260Z,957.48
2017-10-21T00:19:42.245Z,957.42
2017-10-21T00:21:35.141Z,957.47
2017-10-21T00:22:35.147Z,957.51
2017-10-21T00:24:28.555Z,957.48
2017-10-21T00:25:28.542Z,957.46
2017-10-21T00:27:21.934Z,957.46
2017-10-21T00:28:21.945Z,957.43
2017-10-21T00:30:14.885Z,957.42
2017-10-21T00:31:14.856Z,957.40
2017-10-21T00:33:08.234Z,957.43
2017-10-21T00:34:08.243Z,957.46
2017-10-21T00:36:01.653Z,957.38
2017-10-21T00:37:01.643Z,957.39
2017-10-21T00:38:55.065Z,957.37
2017-10-21T00:39:55.051Z,957.37
2017-10-21T00:41:48.460Z,957.40
2017-10-21T00:42:48.447Z,957.42
2017-10-21T00:44:41.837Z,957.44
2017-10-21T00:45:41.842Z,957.42
2017-10-21T00:47:35.266Z,957.41
2017-10-21T00:48:35.258Z,957.39
2017-10-21T00:50:28.148Z,957.42
2017-10-21T00:51:28.154Z,957.36
2017-10-21T00:53:21.563Z,957.37
2017-10-21T00:54:21.563Z,957.37
2017-10-21T00:56:14.947Z,957.36
2017-10-21T00:57:14.951Z,957.36
2017-10-21T00:59:07.867Z,957.33
2017-10-21T01:00:07.855Z,957.32
2017-10-21T01:02:01.248Z,957.34
2017-10-21T01:03:01.250Z,957.32
2017-10-21T01:04:54.659Z,957.33
2017-10-21T01:05:54.650Z,957.32
2017-10-21T01:07:48.040Z,957.35
2017-10-21T01:08:48.046Z,957.33
2017-10-21T01:10:41.457Z,957.33
2017-10-21T01:11:41.445Z,957.32
2017-10-21T01:13:34.846Z,957.29
2017-10-21T01:14:34.859Z,957.31
2017-10-21T01:16:27.766Z,957.25
2017-10-21T01:17:27.754Z,957.24
2017-10-21T01:19:21.145Z,957.21
2017-10-21T01:20:21.153Z,957.21
2017-10-21T01:22:14.565Z,957.20
2017-10-21T01:23:14.550Z,957.16
2017-10-21T01:25:07.938Z,957.14
2017-10-21T01:26:07.945Z,957.13
2017-10-21T01:28:01.355Z,957.13
2017-10-21T01:29:01.346Z,957.13
2017-10-21T01:30:54.733Z,957.21
2017-10-21T01:31:54.743Z,957.21
2017-10-21T01:33:48.148Z,957.25
2017-10-21T01:34:48.138Z,957.23
2017-10-21T01:36:41.036Z,957.23
2017-10-21T01:37:41.040Z,957.24
2017-10-21T01:39:34.453Z,957.24
2017-10-21T01:40:34.437Z,957.24
2017-10-21T01:42:27.826Z,957.24
2017-10-21T01:43:27.835Z,957.25
2017-10-21T01:45:21.241Z,957.28
2017-10-21T01:46:21.231Z,957.24
2017-10-21T01:48:14.129Z,957.27
2017-10-21T01:49:14.132Z,957.24
2017-10-21T01:51:07.540Z,957.26
2017-10-21T01:52:07.528Z,957.31
2017-10-21T01:54:00.919Z,957.26
2017-10-21T01:55:00.927Z,957.20
2017-10-21T01:56:54.341Z,957.27
2017-10-21T01:57:54.324Z,957.25
2017-10-21T01:59:47.712Z,957.25
2017-10-21T02:00:47.720Z,957.21
2017-10-21T02:02:40.636Z,957.20
2017-10-21T02:03:40.624Z,957.25
2017-10-21T02:05:34.021Z,957.31
2017-10-21T02:06:34.021Z,957.31
2017-10-21T02:08:27.431Z,957.30
2017-10-21T02:09:27.419Z,957.31
2017-10-21T02:11:20.807Z,957.27
2017-10-21T02:12:20.813Z,957.26
2017-10-21T02:14:14.255Z,957.27
2017-10-21T02:15:14.245Z,957.26
2017-10-21T02:17:07.635Z,957.23
2017-10-21T02:18:07.644Z,957.25
2017-10-21T02:20:00.556Z,957.20
2017-10-21T02:21:00.543Z,957.18
2017-10-21T02:22:53.933Z,957.17
2017-10-21T02:23:53.940Z,957.16
2017-10-21T02:25:47.349Z,957.10
2017-10-21T02:26:47.337Z,957.10
2017-10-21T02:28:40.731Z,957.09
2017-10-21T02:29:40.731Z,957.15
2017-10-21T02:31:33.651Z,957.15
2017-10-21T02:32:33.637Z,957.14
2017-10-21T02:34:27.030Z,957.18
2017-10-21T02:35:27.043Z,957.18
2017-10-21T02:37:20.445Z,957.17
2017-10-21T02:38:20.433Z,957.18
2017-10-21T02:40:13.326Z,957.17
2017-10-21T02:41:13.336Z,957.13
2017-10-21T02:43:06.750Z,957.15
2017-10-21T02:44:06.739Z,957.16
2017-10-21T02:45:59.637Z,957.17
2017-10-21T02:46:59.640Z,957.14
2017-10-21T02:48:53.049Z,957.17
2017-10-21T02:49:53.037Z,957.18
2017-10-21T02:51:45.937Z,957.22
2017-10-21T02:52:45.943Z,957.21
2017-10-21T02:54:39.352Z,957.19
2017-10-21T02:55:39.344Z,957.18
2017-10-21T02:57:32.240Z,957.13
2017-10-21T02:58:32.245Z,957.11
2017-10-21T03:00:25.651Z,957.09
2017-10-21T03:01:25.643Z,957.09
2017-10-21T03:03:19.050Z,957.10
2017-10-21T03:04:19.042Z,957.11
2017-10-21T03:06:12.431Z,957.10
2017-10-21T03:07:12.438Z,957.12
2017-10-21T03:09:05.852Z,957.13
2017-10-21T03:10:05.835Z,957.12
2017-10-21T03:11:59.223Z,957.13
2017-10-21T03:12:59.228Z,957.12
2017-10-21T03:14:52.667Z,957.11
2017-10-21T03:15:52.628Z,957.09
2017-10-21T03:17:46.018Z,957.09
2017-10-21T03:18:46.025Z,957.08
2017-10-21T03:20:39.432Z,957.06
2017-10-21T03:21:39.423Z,957.09
2017-10-21T03:23:32.320Z,957.09
2017-10-21T03:24:32.322Z,957.10
2017-10-21T03:26:25.730Z,957.17
2017-10-21T03:27:25.718Z,957.16
2017-10-21T03:29:19.107Z,957.21
2017-10-21T03:30:19.118Z,957.19
2017-10-21T03:32:12.034Z,957.23
2017-10-21T03:33:12.020Z,957.28
2017-10-21T03:35:05.406Z,957.38
2017-10-21T03:36:05.413Z,957.37
2017-10-21T03:37:58.823Z,957.48
2017-10-21T03:38:58.814Z,957.54
2017-10-21T03:40:52.239Z,957.50
2017-10-21T03:41:52.248Z,957.51
2017-10-21T03:43:45.167Z,957.40
2017-10-21T03:44:45.148Z,957.36
2017-10-21T03:46:38.538Z,957.38
2017-10-21T03:47:38.544Z,957.42
2017-10-21T03:49:31.954Z,957.42
2017-10-21T03:50:31.943Z,957.42
2017-10-21T03:52:24.839Z,957.35
2017-10-21T03:53:24.846Z,957.40
2017-10-21T03:55:18.258Z,957.41
2017-10-21T03:56:18.247Z,957.37
2017-10-21T03:58:11.672Z,957.38
2017-10-21T03:59:11.642Z,957.37
2017-10-21T04:01:05.032Z,957.36
2017-10-21T04:02:05.039Z,957.29
2017-10-21T04:03:59.449Z,957.29
2017-10-21T04:04:59.436Z,957.29
2017-10-21T04:06:52.827Z,957.26
2017-10-21T04:07:52.834Z,957.22
2017-10-21T04:09:46.257Z,957.28
2017-10-21T04:10:46.250Z,957.27
2017-10-21T04:12:39.636Z,957.30
2017-10-21T04:13:39.641Z,957.34
2017-10-21T04:15:33.049Z,957.36
2017-10-21T04:16:33.038Z,957.32
2017-10-21T04:18:26.437Z,957.32
2017-10-21T04:19:26.446Z,957.29
2017-10-21T04:21:19.852Z,957.35
2017-10-21T04:22:19.840Z,957.34
2017-10-21T04:24:12.745Z,957.37
2017-10-21T04:25:12.756Z,957.33
2017-10-21T04:27:06.159Z,957.35
2017-10-21T04:28:06.147Z,957.34
2017-10-21T04:29:59.538Z,957.35
2017-10-21T04:30:59.549Z,957.31
2017-10-21T04:32:52.955Z,957.31
2017-10-21T04:33:52.943Z,957.35
2017-10-21T04:35:46.354Z,957.33
2017-10-21T04:36:46.338Z,957.28
2017-10-21T04:38:39.241Z,957.29
2017-10-21T04:39:39.244Z,957.27
2017-10-21T04:41:32.181Z,957.25
2017-10-21T04:42:32.147Z,957.24
2017-10-21T04:44:25.536Z,957.26
2017-10-21T04:45:25.542Z,957.24
2017-10-21T04:47:18.952Z,957.26
2017-10-21T04:48:18.939Z,957.27
2017-10-21T04:50:11.834Z,957.25
2017-10-21T04:51:11.843Z,957.27
2017-10-21T04:53:05.248Z,957.26
2017-10-21T04:54:05.240Z,957.28
2017-10-21T04:55:58.636Z,957.30
2017-10-21T04:56:58.645Z,957.32
2017-10-21T04:58:52.049Z,957.32
2017-10-21T04:59:52.035Z,957.33
2017-10-21T05:01:45.425Z,957.33
2017-10-21T05:02:45.431Z,957.31
2017-10-21T05:04:38.847Z,957.31
2017-10-21T05:05:38.832Z,957.33
2017-10-21T05:07:32.236Z,957.29
2017-10-21T05:08:32.246Z,957.29
2017-10-21T05:10:25.655Z,957.28
2017-10-21T05:11:25.644Z,957.30
2017-10-21T05:13:18.539Z,957.33
2017-10-21T05:14:18.544Z,957.32
2017-10-21T05:16:11.961Z,957.28
2017-10-21T05:17:11.945Z,957.31
2017-10-21T05:19:04.840Z,957.26
2017-10-21T05:20:04.844Z,957.28
2017-10-21T05:21:58.259Z,957.29
2017-10-21T05:22:58.244Z,957.28
2017-10-21T05:24:51.633Z,957.31
2017-10-21T05:25:51.645Z,957.33
2017-10-21T05:27:45.051Z,957.36
2017-10-21T05:28:45.048Z,957.39
2017-10-21T05:30:37.951Z,957.40
2017-10-21T05:31:37.944Z,957.38
2017-10-21T05:33:31.330Z,957.39
2017-10-21T05:34:31.340Z,957.40
2017-10-21T05:36:24.752Z,957.36
2017-10-21T05:37:24.735Z,957.38
2017-10-21T05:39:18.126Z,957.37
2017-10-21T05:40:18.135Z,957.39
2017-10-21T05:42:11.050Z,957.36
2017-10-21T05:43:11.036Z,957.37
2017-10-21T05:45:04.423Z,957.37
2017-10-21T05:46:04.432Z,957.36
2017-10-21T05:47:57.364Z,957.32
2017-10-21T05:48:57.332Z,957.32
2017-10-21T05:50:50.234Z,957.38
2017-10-21T05:51:50.241Z,957.37
2017-10-21T05:53:43.156Z,957.39
2017-10-21T05:54:43.144Z,957.39
2017-10-21T05:56:36.535Z,957.40
2017-10-21T05:57:36.540Z,957.48
2017-10-21T05:59:29.966Z,957.49
2017-10-21T06:00:29.945Z,957.51
2017-10-21T06:02:23.329Z,957.47
2017-10-21T06:03:23.336Z,957.48
2017-10-21T06:05:16.743Z,957.48
2017-10-21T06:06:16.732Z,957.47
2017-10-21T06:08:09.627Z,957.46
2017-10-21T06:09:09.634Z,957.53
2017-10-21T06:11:03.043Z,957.53
2017-10-21T06:12:03.033Z,957.50
2017-10-21T06:13:56.427Z,957.54
2017-10-21T06:14:56.428Z,957.57
2017-10-21T06:16:49.839Z,957.59
2017-10-21T06:17:49.835Z,957.59
2017-10-21T06:19:43.216Z,957.60
2017-10-21T06:20:43.221Z,957.59
2017-10-21T06:22:36.629Z,957.59
2017-10-21T06:23:36.620Z,957.61
2017-10-21T06:25:30.012Z,957.61
2017-10-21T06:26:30.023Z,957.64
2017-10-21T06:28:23.452Z,957.69
2017-10-21T06:29:23.434Z,957.73
2017-10-21T06:31:16.833Z,957.75
2017-10-21T06:32:16.822Z,957.76
2017-10-21T06:34:10.240Z,957.79
2017-10-21T06:35:10.248Z,957.76
2017-10-21T06:37:03.690Z,957.79
2017-10-21T06:38:03.654Z,957.79
2017-10-21T06:39:57.046Z,957.83
2017-10-21T06:40:57.053Z,957.77
2017-10-21T06:42:50.463Z,957.79
2017-10-21T06:43:50.453Z,957.85
2017-10-21T06:45:43.844Z,957.88
2017-10-21T06:46:43.848Z,957.89
2017-10-21T06:48:37.266Z,957.87
2017-10-21T06:49:37.262Z,957.87
2017-10-21T06:51:30.652Z,957.93
2017-10-21T06:52:30.653Z,957.91
2017-10-21T06:54:24.063Z,957.95
2017-10-21T06:55:24.053Z,957.99
2017-10-21T06:57:17.443Z,957.95
2017-10-21T06:58:17.449Z,957.95
2017-10-21T07:00:10.861Z,957.97
2017-10-21T07:01:10.849Z,957.92
2017-10-21T07:03:04.239Z,958.04
2017-10-21T07:04:04.250Z,958.01
2017-10-21T07:05:57.672Z,958.00
2017-10-21T07:06:57.669Z,958.02
2017-10-21T07:08:51.205Z,958.06
2017-10-21T07:09:51.063Z,958.06
2017-10-21T07:11:44.453Z,958.09
2017-10-21T07:12:44.460Z,958.11
2017-10-21T07:14:37.873Z,958.02
2017-10-21T07:15:37.867Z,957.98
2017-10-21T07:17:31.251Z,958.05
2017-10-21T07:18:31.257Z,958.06
2017-10-21T07:20:24.669Z,958.06
2017-10-21T07:21:24.657Z,958.06
2017-10-21T07:23:18.052Z,957.99
2017-10-21T07:24:18.062Z,957.99
2017-10-21T07:26:11.469Z,958.03
2017-10-21T07:27:11.460Z,958.04
2017-10-21T07:29:04.851Z,958.03
2017-10-21T07:30:04.863Z,958.05
2017-10-21T07:31:58.270Z,958.04
2017-10-21T07:32:58.256Z,958.07
2017-10-21T07:34:51.650Z,958.10
2017-10-21T07:35:51.658Z,958.07
2017-10-21T07:37:45.069Z,958.02
2017-10-21T07:38:45.064Z,958.06
2017-10-21T07:40:38.453Z,958.06
2017-10-21T07:41:38.456Z,958.10
2017-10-21T07:43:31.867Z,958.11
2017-10-21T07:44:31.856Z,958.10
2017-10-21T07:46:25.249Z,958.14
2017-10-21T07:47:25.260Z,958.08
2017-10-21T07:49:18.671Z,958.06
2017-10-21T07:50:18.659Z,958.03
2017-10-21T07:52:12.074Z,958.05
2017-10-21T07:53:12.061Z,958.05
2017-10-21T07:55:04.970Z,958.05
2017-10-21T07:56:04.966Z,958.01
2017-10-21T07:57:58.393Z,958.07
2017-10-21T07:58:58.361Z,958.08
2017-10-21T08:00:51.765Z,958.04
2017-10-21T08:01:51.773Z,958.03
2017-10-21T08:03:45.193Z,958.05
2017-10-21T08:04:45.184Z,958.04
2017-10-21T08:06:38.583Z,958.04
2017-10-21T08:07:38.585Z,958.11
2017-10-21T08:09:31.995Z,958.09
2017-10-21T08:10:31.990Z,958.09
2017-10-21T08:12:25.384Z,958.11
2017-10-21T08:13:25.388Z,958.14
2017-10-21T08:15:18.798Z,958.11
2017-10-21T08:16:18.788Z,958.09
2017-10-21T08:18:11.687Z,958.10
2017-10-21T08:19:11.698Z,958.16
2017-10-21T08:21:05.111Z,958.11
2017-10-21T08:22:05.098Z,958.15
2017-10-21T08:23:58.506Z,958.17
2017-10-21T08:24:58.497Z,958.11
2017-10-21T08:26:51.895Z,958.13
2017-10-21T08:27:51.899Z,958.12
2017-10-21T08:29:46.309Z,958.12
2017-10-21T08:30:46.299Z,958.10
2017-10-21T08:32:39.692Z,958.13
2017-10-21T08:33:39.708Z,958.09
2017-10-21T08:35:33.115Z,958.08
2017-10-21T08:36:33.105Z,958.05
2017-10-21T08:38:26.006Z,958.12
2017-10-21T08:39:26.014Z,958.09
2017-10-21T08:41:19.435Z,958.12
2017-10-21T08:42:19.417Z,958.12
2017-10-21T08:44:12.835Z,958.19
2017-10-21T08:45:12.820Z,958.17
2017-10-21T08:47:05.721Z,958.21
2017-10-21T08:48:05.727Z,958.20
2017-10-21T08:49:59.159Z,958.17
2017-10-21T08:50:59.132Z,958.15
2017-10-21T08:52:52.522Z,958.12
2017-10-21T08:53:52.532Z,958.18
2017-10-21T08:55:45.965Z,958.16
2017-10-21T08:56:45.932Z,958.14
2017-10-21T08:58:39.329Z,958.15
2017-10-21T08:59:39.333Z,958.15
2017-10-21T09:01:32.746Z,958.18
2017-10-21T09:02:32.737Z,958.17
2017-10-21T09:04:26.130Z,958.18
2017-10-21T09:05:26.138Z,958.19
2017-10-21T09:07:19.549Z,958.18
2017-10-21T09:08:19.539Z,958.15
2017-10-21T09:10:12.934Z,958.15
2017-10-21T09:11:12.945Z,958.20
2017-10-21T09:13:06.905Z,958.18
2017-10-21T09:14:06.344Z,958.19
2017-10-21T09:15:59.739Z,958.23
2017-10-21T09:16:59.749Z,958.25
2017-10-21T09:18:52.663Z,958.21
2017-10-21T09:19:52.655Z,958.20
2017-10-21T09:21:46.050Z,958.18
2017-10-21T09:22:46.058Z,958.16
2017-10-21T09:24:38.977Z,958.15
2017-10-21T09:25:38.971Z,958.11
2017-10-21T09:27:32.363Z,958.07
2017-10-21T09:28:32.369Z,958.06
2017-10-21T09:30:25.787Z,958.05
2017-10-21T09:31:25.772Z,958.06
2017-10-21T09:33:19.165Z,957.99
2017-10-21T09:34:19.178Z,957.98
2017-10-21T09:36:12.587Z,957.99
2017-10-21T09:37:12.577Z,957.97
2017-10-21T09:39:05.543Z,958.02
2017-10-21T09:40:05.492Z,958.01
2017-10-21T09:41:58.900Z,958.01
2017-10-21T09:42:58.886Z,958.01
2017-10-21T09:44:52.283Z,957.97
2017-10-21T09:45:52.292Z,957.95
2017-10-21T09:47:45.703Z,958.00
2017-10-21T09:48:45.695Z,958.01
2017-10-21T09:50:39.089Z,958.00
2017-10-21T09:51:39.101Z,958.01
2017-10-21T09:53:32.511Z,958.02
2017-10-21T09:54:32.505Z,958.09
2017-10-21T09:56:25.898Z,958.03
2017-10-21T09:57:25.906Z,958.01
2017-10-21T09:59:19.324Z,957.96
2017-10-21T10:00:19.350Z,957.98
2017-10-21T10:02:12.224Z,958.02
2017-10-21T10:03:12.234Z,958.02
2017-10-21T10:05:05.649Z,958.08
2017-10-21T10:06:05.643Z,957.80
2017-10-21T10:07:59.043Z,958.19
2017-10-21T10:08:59.058Z,958.26
2017-10-21T10:10:52.483Z,958.18
2017-10-21T10:11:52.477Z,958.18
2017-10-21T10:13:45.880Z,958.27
2017-10-21T10:14:45.894Z,958.18
2017-10-21T10:16:38.836Z,957.90
2017-10-21T10:17:38.817Z,958.01
2017-10-21T10:19:32.244Z,958.34
2017-10-21T10:20:32.261Z,958.26
2017-10-21T10:22:25.680Z,958.16
2017-10-21T10:23:26.244Z,958.17
2017-10-21T10:25:19.124Z,958.18
2017-10-21T10:26:19.098Z,957.94
2017-10-21T10:28:12.014Z,958.09
2017-10-21T10:29:12.024Z,957.99
2017-10-21T10:31:05.446Z,958.11
2017-10-21T10:32:05.461Z,958.08
2017-10-21T10:33:58.361Z,958.09
2017-10-21T10:34:58.374Z,958.09
2017-10-21T10:36:51.808Z,958.01
2017-10-21T10:37:51.807Z,957.95
2017-10-21T10:39:45.216Z,958.09
2017-10-21T10:40:45.231Z,958.02
2017-10-21T10:42:38.161Z,958.03
2017-10-21T10:43:38.159Z,957.99
2017-10-21T10:45:31.577Z,957.92
2017-10-21T10:46:31.590Z,957.82
2017-10-21T10:48:25.023Z,957.81
2017-10-21T10:49:25.022Z,957.79
2017-10-21T10:51:18.441Z,957.75
2017-10-21T10:52:18.457Z,957.81
2017-10-21T10:54:11.883Z,957.93
2017-10-21T10:55:12.488Z,957.86
2017-10-21T10:57:05.286Z,957.77
2017-10-21T10:58:05.302Z,957.80
2017-10-21T10:59:58.730Z,957.78
2017-10-21T11:00:58.727Z,957.76
2017-10-21T11:02:52.157Z,957.65
2017-10-21T11:03:52.170Z,957.63
2017-10-21T11:05:45.707Z,957.65
2017-10-21T11:06:45.604Z,957.67
2017-10-21T11:08:39.007Z,957.74
2017-10-21T11:09:39.022Z,957.54
2017-10-21T11:11:32.691Z,957.65
2017-10-21T11:12:32.444Z,957.61
2017-10-21T11:14:25.901Z,957.50
2017-10-21T11:15:25.874Z,957.59
2017-10-21T11:17:19.300Z,957.64
2017-10-21T11:18:19.318Z,957.57
2017-10-21T11:20:12.745Z,957.43
2017-10-21T11:21:12.740Z,957.49
2017-10-21T11:23:06.145Z,957.56
2017-10-21T11:24:06.156Z,957.49
2017-10-21T11:25:59.579Z,957.45
2017-10-21T11:26:59.576Z,957.41
2017-10-21T11:28:52.992Z,957.33
2017-10-21T11:29:53.046Z,957.56
2017-10-21T11:31:47.482Z,957.50
2017-10-21T11:32:47.496Z,957.37
2017-10-21T11:34:40.871Z,957.52
2017-10-21T11:35:40.862Z,957.44
2017-10-21T11:37:34.265Z,957.43
2017-10-21T11:38:34.281Z,957.43
2017-10-21T11:40:27.710Z,957.41
2017-10-21T11:41:27.707Z,957.43
2017-10-21T11:43:21.115Z,957.46
2017-10-21T11:44:21.123Z,957.36
2017-10-21T11:46:15.627Z,957.37
2017-10-21T11:47:15.675Z,957.36
2017-10-21T11:49:09.206Z,957.42
2017-10-21T11:50:09.022Z,957.39
2017-10-21T11:52:02.474Z,957.36
2017-10-21T11:53:02.516Z,957.31
2017-10-21T11:54:55.893Z,957.36
2017-10-21T11:56:03.539Z,957.41
2017-10-21T11:57:50.313Z,957.27
2017-10-21T11:58:50.321Z,957.22
2017-10-21T12:00:43.835Z,957.20
2017-10-21T12:01:43.721Z,957.22
2017-10-21T12:03:38.177Z,957.21
2017-10-21T12:04:38.207Z,957.17
2017-10-21T12:06:39.237Z,957.16
2017-10-21T12:07:31.588Z,957.17
2017-10-21T12:09:26.044Z,957.15
2017-10-21T12:10:26.078Z,957.14
2017-10-21T12:12:19.370Z,957.13
2017-10-21T12:13:19.368Z,957.13
2017-10-21T12:15:12.763Z,957.12
2017-10-21T12:16:12.774Z,957.07
2017-10-21T12:18:06.274Z,957.07
2017-10-21T12:19:06.258Z,957.02
2017-10-21T12:20:59.672Z,957.02
2017-10-21T12:21:59.671Z,956.99
2017-10-21T12:23:53.089Z,956.99
2017-10-21T12:24:53.086Z,956.95
2017-10-21T12:26:46.489Z,956.89
2017-10-21T12:27:46.513Z,956.87
2017-10-21T12:29:39.912Z,956.82
2017-10-21T12:30:39.914Z,956.82
2017-10-21T12:32:33.323Z,956.84
2017-10-21T12:33:33.324Z,956.80
2017-10-21T12:35:26.741Z,956.85
2017-10-21T12:36:26.757Z,956.78
2017-10-21T12:38:20.147Z,956.82
2017-10-21T12:39:20.180Z,956.87
2017-10-21T12:41:13.744Z,956.86
2017-10-21T12:42:13.752Z,956.87
2017-10-21T12:44:06.980Z,956.90
2017-10-21T12:45:06.994Z,956.84
2017-10-21T12:47:00.411Z,956.88
2017-10-21T12:48:00.401Z,956.82
2017-10-21T12:49:53.821Z,956.86
2017-10-21T12:50:53.819Z,956.87
2017-10-21T12:52:47.234Z,956.88
2017-10-21T12:53:47.361Z,956.87
2017-10-21T12:55:40.630Z,956.90
2017-10-21T12:56:40.651Z,956.89
2017-10-21T12:58:34.060Z,956.86
2017-10-21T12:59:34.055Z,956.93
2017-10-21T13:01:27.452Z,956.97
2017-10-21T13:02:27.515Z,956.95
2017-10-21T13:04:20.901Z,956.89
2017-10-21T13:05:20.899Z,956.94
2017-10-21T13:07:14.289Z,956.89
2017-10-21T13:08:14.301Z,956.84
2017-10-21T13:10:07.735Z,956.80
2017-10-21T13:11:07.724Z,956.74
2017-10-21T13:13:01.207Z,956.73
2017-10-21T13:14:01.232Z,956.74
2017-10-21T13:15:54.556Z,956.74
2017-10-21T13:16:54.630Z,956.73
2017-10-21T13:18:48.027Z,956.68
2017-10-21T13:19:47.964Z,956.72
2017-10-21T13:21:41.435Z,956.72
2017-10-21T13:22:41.419Z,956.66
2017-10-21T13:24:34.824Z,956.62
2017-10-21T13:25:34.972Z,956.62
2017-10-21T13:27:28.268Z,956.61
2017-10-21T13:28:28.257Z,956.63
2017-10-21T13:30:21.664Z,956.61
2017-10-21T13:31:21.700Z,956.62
2017-10-21T13:33:15.108Z,956.60
2017-10-21T13:34:15.108Z,956.60
2017-10-21T13:36:08.501Z,956.65
2017-10-21T13:37:08.541Z,956.64
2017-10-21T13:39:01.930Z,956.66
2017-10-21T13:40:01.916Z,956.62
2017-10-21T13:41:55.431Z,956.67
2017-10-21T13:42:55.328Z,956.65
2017-10-21T13:44:48.737Z,956.63
2017-10-21T13:45:48.760Z,956.65
2017-10-21T13:47:42.206Z,956.64
2017-10-21T13:48:42.192Z,956.60
2017-10-21T13:50:35.573Z,956.59
2017-10-21T13:51:35.601Z,956.60
2017-10-21T13:53:29.016Z,956.63
2017-10-21T13:54:29.004Z,956.53
2017-10-21T13:56:22.451Z,956.61
2017-10-21T13:57:22.441Z,956.56
2017-10-21T13:59:15.839Z,956.47
2017-10-21T14:00:15.828Z,956.45
2017-10-21T14:02:09.486Z,956.47
2017-10-21T14:03:09.302Z,956.49
2017-10-21T14:05:02.722Z,956.50
2017-10-21T14:06:02.718Z,956.44
2017-10-21T14:07:56.121Z,956.44
2017-10-21T14:08:56.140Z,956.41
2017-10-21T14:10:49.541Z,956.40
2017-10-21T14:11:49.535Z,956.39
2017-10-21T14:13:42.954Z,956.39
2017-10-21T14:14:42.956Z,956.39
2017-10-21T14:16:36.358Z,956.39
2017-10-21T14:17:36.373Z,956.42
2017-10-21T14:19:30.768Z,956.43
2017-10-21T14:20:29.829Z,956.42
2017-10-21T14:22:23.186Z,956.49
2017-10-21T14:23:23.223Z,956.42
2017-10-21T14:25:16.632Z,956.38
2017-10-21T14:26:16.616Z,956.40
2017-10-21T14:28:11.417Z,956.39
2017-10-21T14:29:11.136Z,956.37
2017-10-21T14:31:04.648Z,956.36
2017-10-21T14:32:04.502Z,956.35
2017-10-21T14:33:57.855Z,956.32
2017-10-21T14:34:57.868Z,956.34
2017-10-21T14:36:51.286Z,956.33
2017-10-21T14:37:51.277Z,956.32
2017-10-21T14:39:44.677Z,956.30
2017-10-21T14:40:44.687Z,956.23
2017-10-21T14:42:38.120Z,956.23
2017-10-21T14:43:38.134Z,956.26
2017-10-21T14:45:31.519Z,956.26
2017-10-21T14:46:31.532Z,956.25
2017-10-21T14:48:24.948Z,956.24
2017-10-21T14:49:24.935Z,956.21
2017-10-21T14:51:18.341Z,956.21
2017-10-21T14:52:18.352Z,956.20
2017-10-21T14:54:11.768Z,956.14
2017-10-21T14:55:11.751Z,956.16
2017-10-21T14:57:05.150Z,956.11
2017-10-21T14:58:05.161Z,956.10
2017-10-21T14:59:58.575Z,956.12
2017-10-21T15:00:58.568Z,956.11
2017-10-21T15:02:51.969Z,956.08
2017-10-21T15:03:52.000Z,956.05
2017-10-21T15:05:44.896Z,956.06
2017-10-21T15:06:44.890Z,956.06
2017-10-21T15:08:38.289Z,956.07
2017-10-21T15:09:38.309Z,956.08
2017-10-21T15:11:31.730Z,956.08
2017-10-21T15:12:31.716Z,956.08
2017-10-21T15:14:25.120Z,956.05
2017-10-21T15:15:25.113Z,956.07
2017-10-21T15:17:18.513Z,956.05
2017-10-21T15:18:18.522Z,956.02
2017-10-21T15:20:20.764Z,956.02
2017-10-21T15:21:12.961Z,956.00
2017-10-21T15:23:05.858Z,955.96
2017-10-21T15:24:06.400Z,955.91
2017-10-21T15:25:59.308Z,955.94
2017-10-21T15:26:59.280Z,955.90
2017-10-21T15:28:52.686Z,955.83
2017-10-21T15:29:52.689Z,955.79
2017-10-21T15:31:46.101Z,955.78
2017-10-21T15:32:46.124Z,955.73
2017-10-21T15:34:39.580Z,955.71
2017-10-21T15:35:39.515Z,955.72
2017-10-21T15:37:32.919Z,955.72
2017-10-21T15:38:32.932Z,955.71
2017-10-21T15:40:26.319Z,955.72
2017-10-21T15:41:26.321Z,955.71
2017-10-21T15:43:19.751Z,955.68
2017-10-21T15:44:19.742Z,955.65
2017-10-21T15:46:13.149Z,955.61
2017-10-21T15:47:13.164Z,955.64
2017-10-21T15:49:06.594Z,955.61
2017-10-21T15:50:06.583Z,955.55
2017-10-21T15:52:00.009Z,955.53
2017-10-21T15:53:07.646Z,955.55
2017-10-21T15:54:56.984Z,955.52
2017-10-21T15:55:55.318Z,955.48
2017-10-21T15:57:49.135Z,955.48
2017-10-21T15:58:57.955Z,955.51
2017-10-21T16:00:43.527Z,955.46
2017-10-21T16:01:42.898Z,955.43
2017-10-21T16:03:36.081Z,955.44
2017-10-21T16:04:36.209Z,955.43
2017-10-21T16:06:29.563Z,955.47
2017-10-21T16:07:29.559Z,955.46
2017-10-21T16:09:22.974Z,955.49
2017-10-21T16:10:22.956Z,955.48
2017-10-21T16:12:16.437Z,955.48
2017-10-21T16:13:16.355Z,955.45
2017-10-21T16:15:09.774Z,955.48
2017-10-21T16:16:10.728Z,955.51
2017-10-21T16:18:03.133Z,955.54
2017-10-21T16:19:03.206Z,955.50
2017-10-21T16:20:56.687Z,955.47
2017-10-21T16:21:56.611Z,955.45
2017-10-21T16:23:50.252Z,955.44
2017-10-21T16:24:50.056Z,955.42
2017-10-21T16:26:45.468Z,955.40
2017-10-21T16:29:39.786Z,955.32
2017-10-21T16:30:39.604Z,955.33
2017-10-21T16:32:32.165Z,955.27
2017-10-21T16:33:32.856Z,955.26
2017-10-21T16:35:25.725Z,955.30
2017-10-21T16:36:25.707Z,955.25
2017-10-21T16:38:19.132Z,955.26
2017-10-21T16:39:19.126Z,955.28
2017-10-21T16:41:12.527Z,955.35
2017-10-21T16:42:12.528Z,955.35
2017-10-21T16:44:05.938Z,955.39
2017-10-21T16:45:05.926Z,955.39
2017-10-21T16:46:59.328Z,955.39
2017-10-21T16:47:59.331Z,955.44
2017-10-21T16:49:52.752Z,955.43
2017-10-21T16:50:52.742Z,955.47
2017-10-21T16:52:45.644Z,955.45
2017-10-21T16:53:45.647Z,955.43
2017-10-21T16:55:38.573Z,955.40
2017-10-21T16:56:38.663Z,955.45
2017-10-21T16:58:31.946Z,955.46
2017-10-21T16:59:31.964Z,955.49
2017-10-21T17:01:25.367Z,955.58
2017-10-21T17:02:25.360Z,955.54
2017-10-21T17:04:18.773Z,955.54
2017-10-21T17:05:18.778Z,955.53
2017-10-21T17:07:12.191Z,955.61
2017-10-21T17:08:12.181Z,955.57
2017-10-21T17:10:05.611Z,955.60
2017-10-21T17:11:05.598Z,955.58
2017-10-21T17:12:58.987Z,955.60
2017-10-21T17:13:58.998Z,955.59
2017-10-21T17:15:52.406Z,955.54
2017-10-21T17:16:53.049Z,955.57
2017-10-21T17:18:45.789Z,955.57
2017-10-21T17:19:45.796Z,955.60
2017-10-21T17:21:39.221Z,955.58
2017-10-21T17:22:39.209Z,955.63
2017-10-21T17:24:32.605Z,955.62
2017-10-21T17:25:32.613Z,955.60
2017-10-21T17:27:26.024Z,955.54
2017-10-21T17:28:26.013Z,955.57
2017-10-21T17:30:19.411Z,955.61
2017-10-21T17:31:19.417Z,955.59
2017-10-21T17:33:20.683Z,955.61
2017-10-21T17:34:12.831Z,955.63
2017-10-21T17:36:06.577Z,955.60
2017-10-21T17:37:06.584Z,955.55
2017-10-21T17:39:00.006Z,955.50
2017-10-21T17:39:59.994Z,955.44
2017-10-21T17:41:53.401Z,955.39
2017-10-21T17:42:53.406Z,955.41
2017-10-21T17:44:46.818Z,955.38
2017-10-21T17:45:46.810Z,955.39
2017-10-21T17:47:40.266Z,955.39
2017-10-21T17:48:40.258Z,955.41
2017-10-21T17:50:33.156Z,955.52
2017-10-21T17:51:33.164Z,955.54
2017-10-21T17:53:26.590Z,955.56
2017-10-21T17:54:26.574Z,955.55
2017-10-21T17:56:19.967Z,955.56
2017-10-21T17:57:19.979Z,955.61
2017-10-21T17:59:13.389Z,955.67
2017-10-21T18:00:13.375Z,955.70
2017-10-21T18:02:06.772Z,955.67
2017-10-21T18:03:06.777Z,955.62